石垣島の過去48時間の天気

石垣島 (Ishigaki jima)

現在時刻: 1/22 03:22 JST (1/21 18:22 UTC) 以下の時間は現地時間です。

過去48時間のMETAR気象情報
時間 風向 風速(m/s) 視程 気温(℃) 湿度(%) 気圧(hPa) 天気現象
21 20:00 5 10km以上 23 73 1013
21 19:00 5 10km以上 23 73 1013
21 18:00 6 10km以上 23 78 1013
21 17:00 東北東 7 10km以上 22 83 1013
21 16:00 東北東 6 10km以上 23 78 1013
21 15:00 北東 7 10km以上 22 83 1013 弱いしゅう雨
21 14:00 北東 6 10km以上 23 73 1014
21 13:00 北東 6 10km以上 24 74 1014
21 12:00 東北東 7 10km以上 23 73 1015
21 11:00 北東 6 10km以上 23 73 1016
21 10:00 東北東 6 10km以上 22 78 1016
21 09:00 東北東 7 10km以上 22 78 1016
21 08:00 北東 7 10km以上 21 88 1015
21 07:00 北東 7 10km以上 21 83 1015
21 06:00 北東 6 10km以上 21 83 1015
20 20:00 北北東 6 10km以上 21 83 1016
20 19:00 北東 6 10km以上 21 78 1015
20 18:00 北東 7 10km以上 21 73 1015
20 17:00 東北東 7 10km以上 22 73 1014
20 16:00 北東 8 10km以上 23 69 1014
20 15:00 北東 8 10km以上 24 65 1014
20 14:00 東北東 8 10km以上 24 61 1015
20 13:00 東北東 8 10km以上 24 69 1016
20 12:00 北東 7 10km以上 24 69 1017
20 11:00 北東 7 10km以上 23 73 1017
20 10:00 東北東 7 10km以上 23 73 1018
20 09:00 東北東 7 10km以上 22 78 1017
20 08:00 東北東 7 10km以上 21 83 1016
20 07:00 北東 7 10km以上 20 88 1016 弱いしゅう雨
20 06:00 東北東 7 10km以上 20 88 1015 弱い雨
ROIG 211100Z 10010KT 9999 FEW020 BKN040 23/18 Q1013
ROIG 211000Z 09009KT 9999 FEW020 BKN045 23/18 Q1013
ROIG 210900Z 09011KT 9999 SCT020 BKN050 23/19 Q1013
ROIG 210800Z 06013KT 9999 SCT018 BKN030 BKN050 22/19 Q1013
ROIG 210700Z 06011KT 9999 SCT018 BKN040 BKN060 23/19 Q1013
ROIG 210600Z 05013KT 9999 -SHRA FEW018 SCT032 BKN050 22/19 Q1013
ROIG 210500Z 05012KT 9999 FEW019 BKN060 23/18 Q1014
ROIG 210400Z 05012KT 9999 SCT020 BKN060 24/19 Q1014
ROIG 210300Z 06013KT 9999 FEW018 BKN060 BKN080 23/18 Q1015
ROIG 210200Z 05012KT 9999 FEW017 BKN070 23/18 Q1016
ROIG 210100Z 06011KT 9999 FEW017 BKN080 22/18 Q1016
ROIG 210000Z 06013KT 9999 FEW018 BKN080 22/18 Q1016
ROIG 202300Z 05013KT 9999 FEW015 SCT080 21/19 Q1015
ROIG 202200Z 05014KT 9999 FEW016 SCT050 BKN080 21/18 Q1015
ROIG 202100Z 04011KT 9999 FEW018 BKN060 21/18 Q1015
ROIG 201100Z 03012KT 9999 FEW018 BKN037 21/18 Q1016
ROIG 201000Z 04012KT 9999 FEW018 BKN035 21/17 Q1015
ROIG 200900Z 05013KT 9999 FEW024 SCT/// 21/16 Q1015
ROIG 200800Z 06013KT 9999 FEW019 22/17 Q1014
ROIG 200700Z 05015KT 9999 FEW021 23/17 Q1014
ROIG 200600Z 05015KT 9999 FEW019 24/17 Q1014
ROIG 200500Z 06015KT 9999 FEW020 24/16 Q1015
ROIG 200400Z 06015KT 9999 FEW020 24/18 Q1016
ROIG 200300Z 05013KT 9999 FEW018 SCT070 24/18 Q1017
ROIG 200200Z 05014KT 9999 FEW018 BKN070 23/18 Q1017
ROIG 200100Z 06014KT 9999 FEW019 SCT060 BKN150 23/18 Q1018
ROIG 200000Z 07013KT 9999 FEW017 SCT024 BKN170 22/18 Q1017
ROIG 192300Z 06014KT 9999 SCT015 BKN033 BKN150 21/18 Q1016
ROIG 192200Z 05014KT 9999 -SHRA SCT014 BKN120 20/18 Q1016
ROIG 192100Z 06014KT 9999 -RA SCT013 BKN035 20/18 Q1015